Sierra Nevada Aquatic Research Lab (SNARL) Reserve, California Weather observations

Data are for 10 minute period ending at time listed.
 Day   Time   Solar   Ave.   Ave.  Ave.  Vector  Max.   Baro.   Total    
  of    of     Rad.   Air    Rel.  Wind   Wind   Wind  Press.  Precip.   
Year   Day            Temp.  Hum.  Speed  Dir.   Gust                    
2016   (PST)  Kw/m2    F      %     mph   deg.    mph    mb.     in.     
-------------------------------------------------------------------------
 176    8:20   0.69   72.8    12   10.3   229    20.2   787.7    0.00 
 176    8:30   0.72   73.3    11   14.3   219    25.9   787.6    0.00 
 176    8:40   0.75   73.3    11   15.9   222    33.2   787.6    0.00 
 176    8:50   0.78   73.9    10   13.7   215    25.1   787.6    0.00 
 176    9:00   0.75   74.3    16   10.1   158    19.4   787.5    0.00 
 176    9:10   0.83   73.5    17    6.5   104    17.5   787.6    0.00 
 176    9:20   0.85   75.1    13   10.1   197    21.6   787.6    0.00 
 176    9:30   0.87   75.6    11   16.1   220    25.7   787.6    0.00 
 176    9:40   0.89   75.4    11   15.3   220    23.0   787.6    0.00 
 176    9:50   0.91   76.0    12   12.2   216    23.0   787.7    0.00 
 176   10:00   0.93   76.5    13   11.1   209    22.1   787.6    0.00 
 176   10:10   0.95   77.4    13   12.1   222    19.7   787.7    0.00 
 176   10:20   0.97   77.4    13   13.4   220    20.4   787.7    0.00 
 176   10:30   0.98   77.6    12   13.0   208    20.2   787.8    0.00 
 176   10:40   0.99   77.8    12   13.2   206    21.3   787.9    0.00 
 176   10:50   1.01   77.9    12   16.1   213    22.6   788.0    0.00 
 176   11:00   1.02   77.7    13   15.9   208    22.5   788.0    0.00 
 176   11:10   1.02   78.1    12   14.0   210    21.0   787.9    0.00 
 176   11:20   1.03   78.9    13   10.6   216    16.9   787.9    0.00 
 176   11:30   1.03   79.2    13    9.2   211    18.0   787.9    0.00 
 176   11:40   1.04   79.8    13    9.2   251    20.9   787.9    0.00 
 176   11:50   1.05   79.8    12   10.1   256    17.6   787.9    0.00 
 176   12:00   1.05   79.7    12    7.8   241    18.9   787.9    0.00 
 176   12:10   1.05   79.9    12    7.4   262    15.8   787.8    0.00 
 176   12:20   1.05   80.1    12    8.6   253    16.6   787.8    0.00 
 176   12:30   1.04   79.9    12   10.4   254    17.5   787.8    0.00 
 176   12:40   1.03   79.2    12   11.3   271    20.8   787.8    0.00 
 176   12:50   1.03   79.2    12    9.7   271    17.7   787.8    0.00 
 176   13:00   1.02   79.9    12    9.5   277    15.8   787.8    0.00 
 176   13:10   1.02   79.6    12    9.1   298    16.7   787.8    0.00 
 176   13:20   1.01   80.2    12    8.5   284    15.6   787.7    0.00 
 176   13:30   0.99   80.7    12    9.2   259    17.0   787.7    0.00 
 176   13:40   0.98   80.6    12    9.1   264    18.3   787.7    0.00 
 176   13:50   0.96   79.9    13    9.4   275    16.0   787.6    0.00 
 176   14:00   0.94   80.2    13    8.4   271    16.0   787.5    0.00 
 176   14:10   0.93   79.8    14    9.9   274    17.8   787.5    0.00 
 176   14:20   0.90   80.2    14   10.3   266    18.1   787.5    0.00 
 176   14:30   0.88   79.7    13    8.8   287    15.2   787.5    0.00 
 176   14:40   0.85   79.8    14   10.4   256    20.1   787.4    0.00 
 176   14:50   0.83   80.0    14    8.4   266    15.7   787.4    0.00 
 176   15:00   0.80   80.1    15   10.7   260    17.8   787.4    0.00 
 176   15:10   0.78   80.2    15    8.7   255    14.1   787.3    0.00 
 176   15:20   0.75   79.7    14    9.1   264    16.9   787.3    0.00 
 176   15:30   0.72   79.2    15   10.4   252    18.7   787.2    0.00 
 176   15:40   0.69   79.6    15    7.2   263    12.5   787.1    0.00 
 176   15:50   0.66   79.8    16    8.6   256    24.6   787.1    0.00 
 176   16:00   0.62   79.6    16    6.1   254    11.9   787.0    0.00 
 176   16:10   0.59   79.6    17    8.0   248    14.0   787.0    0.00 
 176   16:20   0.56   79.3    18    8.2   246    14.2   787.0    0.00 
 176   16:30   0.52   79.0    18   10.0   242    15.6   786.9    0.00 
 176   16:40   0.49   79.2    18    7.4   252    16.5   786.8    0.00 
 176   16:50   0.45   79.0    17    8.1   272    16.4   786.7    0.00 
 176   17:00   0.42   78.4    19    7.6   255    15.4   786.7    0.00 
 176   17:10   0.38   78.3    19    7.8   259    13.4   786.7    0.00 
 176   17:20   0.35   77.8    19    8.6   250    15.3   786.7    0.00 
 176   17:30   0.31   77.3    20    7.8   253    15.2   786.8    0.00 
 176   17:40   0.28   76.8    21   11.2   239    16.9   786.8    0.00 
 176   17:50   0.24   76.4    21    7.5   254    12.2   786.8    0.00 
 176   18:00   0.20   76.2    21    8.0   249    13.1   786.8    0.00 
 176   18:10   0.18   75.0    22   11.4   242    19.1   786.9    0.00 
 176   18:20   0.15   74.7    23    7.9   248    15.3   786.9    0.00 
 176   18:30   0.12   73.8    23    9.4   240    15.2   786.9    0.00 
 176   18:40   0.09   73.1    23    8.2   255    14.1   787.0    0.00 
 176   18:50   0.06   72.2    26    5.5   276    10.4   787.0    0.00 
 176   19:00   0.03   69.5    29    5.4   274     9.1   787.1    0.00 
 176   19:10   0.01   67.2    31    4.9   266     9.6   787.0    0.00 
 176   19:20   0.00   65.9    32    4.6   283     8.0   787.1    0.00 
 176   19:30   0.00   65.0    33    5.0   292     9.9   787.1    0.00 
 176   19:40   0.00   64.0    34    6.4   269     9.4   787.2    0.00 
 176   19:50   0.00   63.4    34    6.5   267    10.0   787.2    0.00 
 176   20:00   0.00   63.1    34    5.5   267     9.1   787.2    0.00 
 176   20:10   0.00   62.9    34    4.6   275     8.0   787.3    0.00 
 176   20:20   0.00   62.3    34    4.4   280     8.1   787.4    0.00 
 176   20:30   0.00   61.6    34    6.4   266    11.9   787.6    0.00 
 176   20:40   0.00   61.6    34    6.2   268    12.1   787.7    0.00 
 176   20:50   0.00   61.2    36    5.1   300     8.7   788.0    0.00 
 176   21:00   0.00   61.0    35    7.4   266    10.4   788.1    0.00 
 176   21:10   0.00   60.3    35    7.7   253    11.0   788.2    0.00 
 176   21:20   0.00   60.1    34    8.9   250    12.2   788.3    0.00 
 176   21:30   0.00   60.0    32    8.7   249    12.5   788.4    0.00 
 176   21:40   0.00   60.0    30    8.1   249    10.1   788.4    0.00 
 176   21:50   0.00   59.0    28    7.3   252     9.5   788.4    0.00 
 176   22:00   0.00   58.9    27    7.2   257     9.3   788.5    0.00 
 176   22:10   0.00   58.1    27    7.7   257    10.9   788.5    0.00 
 176   22:20   0.00   58.0    26    8.7   255    11.9   788.5    0.00 
 176   22:30   0.00   58.4    24    9.6   255    14.0   788.6    0.00 
 176   22:40   0.00   59.5    21    9.1   256    13.1   788.6    0.00 
 176   22:50   0.00   59.8    20    9.6   256    15.4   788.7    0.00 
 176   23:00   0.00   60.1    19    9.9   255    13.1   788.7    0.00 
 176   23:10   0.00   59.6    20    9.3   253    12.1   788.8    0.00 
 176   23:20   0.00   59.4    20    7.6   261    12.3   788.8    0.00 
 176   23:30   0.00   58.6    21    8.7   260    11.3   788.8    0.00 
 176   23:40   0.00   58.0    22    8.8   260    12.6   788.8    0.00 
 176   23:50   0.00   57.9    22    8.6   252    11.6   788.8    0.00 
 177    0:00   0.00   58.6    21    9.2   254    11.6   788.8    0.00 
 177    0:10   0.00   58.0    22    7.9   258    12.3   788.8    0.00 
 177    0:20   0.00   57.5    23    8.1   262    11.9   788.8    0.00 
 177    0:30   0.00   56.9    24    8.4   256    11.0   788.8    0.00 
 177    0:40   0.00   56.3    25    8.4   251    11.2   788.8    0.00 
 177    0:50   0.00   55.4    26    6.9   257     9.6   788.8    0.00 
 177    1:00   0.00   55.5    26    7.5   259     9.1   788.8    0.00 
 177    1:10   0.00   54.3    28    6.2   253     8.5   788.8    0.00 
 177    1:20   0.00   53.1    30    3.8   249     5.7   788.8    0.00 
 177    1:30   0.00   50.3    35    3.9   252     5.6   788.8    0.00 
 177    1:40   0.00   48.2    40    2.6   268     4.9   788.8    0.00 
 177    1:50   0.00   46.0    44    0.8   346     3.4   788.8    0.00 
 177    2:00   0.00   44.3    48    0.3   176     1.5   788.8    0.00 
 177    2:10   0.00   45.0    43    4.7   242     8.3   788.7    0.00 
 177    2:20   0.00   47.6    41    1.8   245     6.9   788.7    0.00 
 177    2:30   0.00   44.0    47    1.4   242     4.6   788.6    0.00 
 177    2:40   0.00   43.2    50    0.7   117     3.3   788.6    0.00 
 177    2:50   0.00   42.0    52    1.6   249     5.5   788.6    0.00 
 177    3:00   0.00   41.5    54    0.9    54     3.1   788.7    0.00 
 177    3:10   0.00   40.9    54    2.4     3     6.4   788.8    0.00 
 177    3:20   0.00   41.4    54    1.6   268     5.4   788.8    0.00 
 177    3:30   0.00   40.9    54    1.7   301     3.0   788.7    0.00 
 177    3:40   0.00   40.1    56    2.0   113     3.5   788.7    0.00 
 177    3:50   0.00   40.2    58    0.6    95     2.7   788.7    0.00 
 177    4:00   0.00   40.2    57    1.4    95     4.0   788.8    0.00 
 177    4:10   0.00   40.3    56    0.8   107     3.2   788.9    0.00 
 177    4:20   0.00   40.5    55    3.8   263     8.8   788.9    0.00 
 177    4:30   0.00   46.9    40    5.8   265     8.4   788.8    0.00 
 177    4:40   0.00   48.6    40    4.6   244     8.3   788.9    0.00 
 177    4:50   0.00   45.6    46    2.4   240     4.4   789.0    0.00 
 177    5:00   0.01   42.0    55    1.1    84     3.3   789.0    0.00 
 177    5:10   0.01   40.3    60    0.7   110     2.6   789.1    0.00 
 177    5:20   0.03   40.9    58    1.1    96     2.4   789.2    0.00 
 177    5:30   0.01   42.4    58    2.0   100     3.9   789.3    0.00 
 177    5:40   0.06   44.8    56    2.1   106     3.7   789.3    0.00 
 177    5:50   0.17   47.1    54    0.8   342     2.2   789.3    0.00 
 177    6:00   0.20   52.5    46    0.2   102     1.1   789.4    0.00 
 177    6:10   0.23   56.7    41    1.1   138     2.4   789.4    0.00 
 177    6:20   0.27   58.6    37    1.6   296     6.9   789.5    0.00 
 177    6:30   0.30   60.3    32    4.6   290     8.4   789.5    0.00 
 177    6:40   0.34   61.7    31    3.1   291     5.6   789.5    0.00 
 177    6:50   0.37   63.2    30    2.4   292     5.0   789.4    0.00 
 177    7:00   0.41   64.9    29    1.8   275     5.3   789.4    0.00 
 177    7:10   0.45   65.6    26    3.7   286     8.3   789.3    0.00 
 177    7:20   0.48   65.4    26    5.1   270     9.6   789.2    0.00 
 177    7:30   0.52   66.0    24    4.3   274     7.9   789.2    0.00 
 177    7:40   0.55   67.1    23    2.6   304     6.5   789.0    0.00 
 177    7:50   0.58   68.3    24    2.4    18     5.9   789.0    0.00 
 177    8:00   0.61   67.7    29    2.9    68     5.8   789.0    0.00 
 177    8:10   0.64   67.9    30    3.8    71     7.6   789.0    0.00 

Return to SNARL Reserve graphs page.


Western Regional Climate Center,wrcc@dri.edu